Time;durP1;ratioP1;P1;durP2;ratioP2;P2;SDS_P1;SDS_P2;PMS_P1;PMS_P2;Temp;Humidity;BMP_temperature;BMP_pressure;BME280_temperature;BME280_humidity;BME280_pressure;Samples;Min_cycle;Max_cycle;Signal;HPM_P1;HPM_P2
2022/03/23 00:02:24;;;;;;;27.00;16.60;;;9.80;99.90;;;;;;4856516;29;20213;-81
2022/03/23 00:04:53;;;;;;;20.83;15.67;;;9.70;99.90;;;;;;4853998;29;20214;-79
2022/03/23 00:07:21;;;;;;;24.40;19.40;;;9.60;99.90;;;;;;4860609;29;20459;-80
2022/03/23 00:09:48;;;;;;;25.80;16.67;;;9.80;99.90;;;;;;4860784;29;20198;-79
2022/03/23 00:12:15;;;;;;;23.33;16.43;;;9.70;99.90;;;;;;4856114;29;20198;-81
2022/03/23 00:14:47;;;;;;;24.57;16.03;;;9.70;99.90;;;;;;4853912;29;20225;-80
2022/03/23 00:17:16;;;;;;;23.97;15.87;;;9.70;99.90;;;;;;4854828;29;20209;-81
2022/03/23 00:19:44;;;;;;;25.20;16.07;;;9.60;99.90;;;;;;4853456;29;20217;-80
2022/03/23 00:22:17;;;;;;;23.80;15.77;;;9.40;99.90;;;;;;4851101;29;20210;-79
2022/03/23 00:24:46;;;;;;;26.83;16.03;;;9.30;99.90;;;;;;4851732;29;20685;-80
2022/03/23 00:27:18;;;;;;;25.60;19.05;;;9.50;99.90;;;;;;4851974;29;20479;-80
2022/03/23 00:29:45;;;;;;;28.80;16.93;;;9.40;99.90;;;;;;4855907;29;20206;-80
2022/03/23 00:32:21;;;;;;;28.00;17.13;;;9.40;99.90;;;;;;4853450;29;20247;-81
2022/03/23 00:34:49;;;;;;;25.50;16.73;;;9.40;99.90;;;;;;4851778;29;20241;-80
2022/03/23 00:37:22;;;;;;;29.80;20.10;;;9.30;99.90;;;;;;4848742;29;20736;-80
2022/03/23 00:39:49;;;;;;;34.80;19.03;;;9.20;99.90;;;;;;4849588;29;20209;-80
2022/03/23 00:42:23;;;;;;;31.60;20.27;;;9.20;99.90;;;;;;4848971;29;20573;-80
2022/03/23 00:44:51;;;;;;;21.57;17.00;;;9.20;99.90;;;;;;4848622;29;20247;-82
2022/03/23 00:47:21;;;;;;;26.80;18.67;;;9.20;99.90;;;;;;4848591;29;20803;-81
2022/03/23 00:49:56;;;;;;;29.17;19.27;;;9.00;99.90;;;;;;4854500;29;20201;-81
2022/03/23 00:52:34;;;;;;;28.00;19.10;;;9.00;99.90;;;;;;4861774;29;20228;-82
2022/03/23 00:55:09;;;;;;;26.53;18.70;;;9.00;99.90;;;;;;4851573;29;20238;-80
2022/03/23 00:57:45;;;;;;;24.37;17.40;;;8.90;99.90;;;;;;4850779;29;20589;-81
2022/03/23 01:00:20;;;;;;;24.83;17.47;;;9.00;99.90;;;;;;4852072;29;20218;-81
2022/03/23 01:02:52;;;;;;;25.77;17.80;;;8.90;99.90;;;;;;4850382;29;20209;-81
2022/03/23 01:05:19;;;;;;;28.67;17.23;;;8.90;99.90;;;;;;4854889;29;20206;-80
2022/03/23 01:07:57;;;;;;;26.53;17.73;;;8.90;99.90;;;;;;4871627;29;20220;-80
2022/03/23 01:10:27;;;;;;;25.30;17.60;;;8.80;99.90;;;;;;4870492;29;20215;-80
2022/03/23 01:13:01;;;;;;;25.80;16.83;;;8.80;99.90;;;;;;4870443;29;20277;-80
2022/03/23 01:15:33;;;;;;;21.67;17.03;;;8.70;99.90;;;;;;4869569;29;20232;-80
2022/03/23 01:18:00;;;;;;;25.00;17.73;;;8.60;99.90;;;;;;4868645;29;20220;-79
2022/03/23 01:20:31;;;;;;;28.00;17.00;;;8.60;99.90;;;;;;4868870;29;20209;-80
2022/03/23 01:23:03;;;;;;;24.93;17.17;;;8.60;99.90;;;;;;4869486;29;20197;-82
2022/03/23 01:25:31;;;;;;;28.00;19.03;;;8.40;99.90;;;;;;4867897;29;20214;-79
2022/03/23 01:28:08;;;;;;;23.83;17.13;;;8.30;99.90;;;;;;4868678;29;20213;-81
2022/03/23 01:30:40;;;;;;;22.70;16.63;;;8.40;99.90;;;;;;4868879;29;20240;-80
2022/03/23 01:33:09;;;;;;;25.23;17.07;;;8.40;99.90;;;;;;4872138;29;20244;-81
2022/03/23 01:35:39;;;;;;;25.53;17.60;;;8.30;99.90;;;;;;4879422;29;20262;-80
2022/03/23 01:38:10;;;;;;;26.10;17.27;;;8.30;99.90;;;;;;4872754;29;20657;-80
2022/03/23 01:40:50;;;;;;;26.30;17.80;;;8.30;99.90;;;;;;4872557;29;20213;-81
2022/03/23 01:43:20;;;;;;;25.17;17.60;;;8.30;99.90;;;;;;4871655;29;20225;-81
2022/03/23 01:45:47;;;;;;;30.57;18.03;;;8.20;99.90;;;;;;4871051;29;20209;-80
2022/03/23 01:48:14;;;;;;;25.40;18.50;;;8.20;99.90;;;;;;4871074;29;20212;-80
2022/03/23 01:50:42;;;;;;;24.65;20.70;;;8.10;99.90;;;;;;4870057;29;20445;-81
2022/03/23 01:53:13;;;;;;;28.57;18.50;;;8.30;99.90;;;;;;4870345;29;20240;-81
2022/03/23 01:55:46;;;;;;;23.93;17.53;;;8.10;99.90;;;;;;4869767;29;20229;-80
2022/03/23 01:58:14;;;;;;;25.03;16.90;;;7.90;99.90;;;;;;4870421;29;20209;-81
2022/03/23 02:00:42;;;;;;;28.37;17.77;;;7.90;99.90;;;;;;4868119;29;20224;-80
2022/03/23 02:03:17;;;;;;;31.43;17.23;;;7.80;99.90;;;;;;4867739;29;20269;-80
2022/03/23 02:05:45;;;;;;;28.10;17.30;;;7.60;99.90;;;;;;4868106;29;20580;-79
2022/03/23 02:08:14;;;;;;;26.47;16.57;;;7.60;99.90;;;;;;4869372;29;20653;-80
2022/03/23 02:10:44;;;;;;;28.00;17.58;;;7.60;99.90;;;;;;4873483;29;20441;-80
2022/03/23 02:13:12;;;;;;;22.97;17.00;;;7.60;99.90;;;;;;4872846;29;20201;-80
2022/03/23 02:15:41;;;;;;;29.67;17.10;;;7.50;99.90;;;;;;4874283;29;20256;-82
2022/03/23 02:18:11;;;;;;;24.73;17.60;;;7.50;99.90;;;;;;4880689;29;20213;-80
2022/03/23 02:20:42;;;;;;;26.97;17.60;;;7.50;99.90;;;;;;4876928;29;20276;-80
2022/03/23 02:23:18;;;;;;;23.70;16.80;;;7.40;99.90;;;;;;4875125;29;20226;-80
2022/03/23 02:25:58;;;;;;;26.63;15.60;;;7.40;99.90;;;;;;4876798;29;20229;-80
2022/03/23 02:28:26;;;;;;;23.50;16.53;;;7.30;99.90;;;;;;4874682;29;20209;-80
2022/03/23 02:31:08;;;;;;;26.87;17.30;;;7.10;99.90;;;;;;4874577;29;20209;-80
2022/03/23 02:33:35;;;;;;;30.45;21.27;;;7.00;99.90;;;;;;4871776;29;20447;-82
2022/03/23 02:36:03;;;;;;;29.23;18.60;;;7.20;99.90;;;;;;4872715;29;20245;-80
2022/03/23 02:38:33;;;;;;;26.80;18.87;;;7.10;99.90;;;;;;4872631;29;20213;-80
2022/03/23 02:41:00;;;;;;;30.17;18.57;;;7.00;99.90;;;;;;4872538;29;20205;-80
2022/03/23 02:43:31;;;;;;;34.73;18.27;;;6.90;99.90;;;;;;4873123;29;20205;-81
2022/03/23 02:45:58;;;;;;;29.43;18.23;;;6.80;99.90;;;;;;4871389;29;20206;-80
2022/03/23 02:48:27;;;;;;;27.70;17.80;;;6.70;99.90;;;;;;4872391;29;20212;-79
2022/03/23 02:50:56;;;;;;;24.77;17.27;;;6.70;99.90;;;;;;4871128;29;20197;-79
2022/03/23 03:02:15;;;;;;;28.17;18.07;;;6.50;99.90;;;;;;4881276;29;20229;-82
2022/03/23 03:04:43;;;;;;;30.60;17.87;;;6.40;99.90;;;;;;4876799;29;20217;-80
2022/03/23 03:07:12;;;;;;;26.77;18.13;;;6.50;99.90;;;;;;4875311;29;20193;-80
2022/03/23 03:09:45;;;;;;;25.70;18.30;;;6.70;99.90;;;;;;4875034;29;20202;-80
2022/03/23 03:12:18;;;;;;;30.93;18.43;;;6.70;99.90;;;;;;4874154;29;20636;-80
2022/03/23 03:14:48;;;;;;;31.13;19.40;;;6.80;99.90;;;;;;4873952;29;20245;-80
2022/03/23 03:17:19;;;;;;;28.17;19.27;;;6.70;99.90;;;;;;4873789;29;20224;-80
2022/03/23 03:19:47;;;;;;;31.10;19.07;;;6.70;99.90;;;;;;4871824;29;20213;-80
2022/03/23 03:22:18;;;;;;;25.33;18.77;;;6.50;99.90;;;;;;4871389;29;20733;-81
2022/03/23 03:24:50;;;;;;;29.30;18.77;;;6.70;99.90;;;;;;4873446;29;20599;-80
2022/03/23 03:27:23;;;;;;;26.57;18.87;;;6.60;99.90;;;;;;4873109;29;20193;-80
2022/03/23 03:29:52;;;;;;;29.33;19.30;;;6.60;99.90;;;;;;4872849;29;20215;-82
2022/03/23 03:32:22;;;;;;;27.23;18.93;;;6.60;99.90;;;;;;4875186;29;20225;-81
2022/03/23 03:34:51;;;;;;;33.27;19.87;;;6.60;99.90;;;;;;4874966;29;20225;-81
2022/03/23 03:37:20;;;;;;;29.50;19.37;;;6.60;99.90;;;;;;4875016;29;20197;-80
2022/03/23 03:39:50;;;;;;;31.13;18.50;;;6.60;99.90;;;;;;4876171;29;20224;-81
2022/03/23 03:42:19;;;;;;;32.07;20.30;;;6.60;99.90;;;;;;4875172;29;20193;-80
2022/03/23 03:44:50;;;;;;;27.87;19.57;;;6.70;99.90;;;;;;4875260;29;20251;-80
2022/03/23 03:47:18;;;;;;;30.97;19.17;;;6.70;99.90;;;;;;4874061;29;20209;-80
2022/03/23 03:49:48;;;;;;;32.33;18.97;;;6.60;99.90;;;;;;4875208;29;20226;-80
2022/03/23 03:52:24;;;;;;;28.37;19.20;;;6.50;99.90;;;;;;4873964;29;20230;-80
2022/03/23 03:54:51;;;;;;;33.57;19.80;;;6.40;99.90;;;;;;4872457;29;20225;-79
2022/03/23 03:57:20;;;;;;;26.97;18.93;;;6.30;99.90;;;;;;4872153;29;20253;-80
2022/03/23 03:59:51;;;;;;;33.15;23.95;;;6.30;99.90;;;;;;4868826;29;20456;-79
2022/03/23 04:02:26;;;;;;;27.50;19.93;;;6.40;99.90;;;;;;4870565;29;20213;-80
2022/03/23 04:04:57;;;;;;;29.27;20.50;;;6.40;99.90;;;;;;4870678;29;20215;-80
2022/03/23 04:07:25;;;;;;;27.33;20.40;;;6.30;99.90;;;;;;4877059;29;20232;-80
2022/03/23 04:09:54;;;;;;;33.37;20.13;;;6.30;99.90;;;;;;4873126;29;20213;-80
2022/03/23 04:12:22;;;;;;;39.30;21.17;;;6.30;99.90;;;;;;4871211;29;20217;-81
2022/03/23 04:14:55;;;;;;;31.00;20.87;;;6.10;99.90;;;;;;4871970;29;20225;-80
2022/03/23 04:17:22;;;;;;;32.57;21.73;;;6.10;99.90;;;;;;4869039;29;20213;-80
2022/03/23 04:19:51;;;;;;;33.10;20.83;;;6.10;99.90;;;;;;4869405;29;20221;-81
2022/03/23 04:22:17;;;;;;;33.05;24.70;;;6.10;99.90;;;;;;4868564;29;20452;-81
2022/03/23 04:24:45;;;;;;;28.90;20.90;;;6.20;99.90;;;;;;4869299;29;20224;-80
2022/03/23 04:27:14;;;;;;;27.27;19.93;;;6.30;99.90;;;;;;4870025;29;20212;-80
2022/03/23 04:29:43;;;;;;;31.70;20.30;;;6.20;99.90;;;;;;4869989;29;20288;-79
2022/03/23 04:32:10;;;;;;;34.23;21.00;;;6.20;99.90;;;;;;4868122;29;20214;-81
2022/03/23 04:34:37;;;;;;;35.40;20.73;;;6.10;99.90;;;;;;4868028;29;20213;-81
2022/03/23 04:37:09;;;;;;;33.63;21.37;;;6.00;99.90;;;;;;4869995;29;20213;-81
2022/03/23 04:39:40;;;;;;;33.13;21.77;;;6.10;99.90;;;;;;4868638;29;20209;-80
2022/03/23 04:42:09;;;;;;;28.63;19.90;;;6.10;99.90;;;;;;4869540;29;20276;-79
2022/03/23 04:44:37;;;;;;;28.10;20.43;;;6.10;99.90;;;;;;4868094;29;20476;-79
2022/03/23 04:47:12;;;;;;;31.30;19.90;;;6.10;99.90;;;;;;4867238;29;20464;-79
2022/03/23 04:49:40;;;;;;;32.73;19.90;;;6.10;99.90;;;;;;4874450;29;20494;-80
2022/03/23 04:52:11;;;;;;;34.90;20.37;;;6.00;99.90;;;;;;4874236;29;20233;-80
2022/03/23 04:54:40;;;;;;;34.93;21.20;;;6.00;99.90;;;;;;4869582;29;20805;-80
2022/03/23 04:57:10;;;;;;;32.07;20.43;;;5.90;99.90;;;;;;4869850;29;20211;-80
2022/03/23 04:59:41;;;;;;;34.73;21.23;;;5.90;99.90;;;;;;4869271;29;20209;-80
2022/03/23 05:02:09;;;;;;;31.77;20.00;;;5.90;99.90;;;;;;4868383;29;20457;-81
2022/03/23 05:04:36;;;;;;;33.80;21.73;;;5.80;99.90;;;;;;4868001;29;20815;-80
2022/03/23 05:07:09;;;;;;;34.63;25.35;;;5.80;99.90;;;;;;4868557;29;20456;-80
2022/03/23 05:09:36;;;;;;;34.53;22.23;;;5.80;99.90;;;;;;4865511;29;20217;-79
2022/03/23 05:12:04;;;;;;;30.30;20.27;;;5.80;99.90;;;;;;4866984;29;20440;-80
2022/03/23 05:14:34;;;;;;;44.83;21.20;;;5.80;99.90;;;;;;4867601;29;20433;-80
2022/03/23 05:17:04;;;;;;;40.00;21.77;;;5.90;99.90;;;;;;4871018;29;20504;-78
2022/03/23 05:19:36;;;;;;;31.33;19.67;;;5.80;99.90;;;;;;4870540;29;20469;-80
2022/03/23 05:22:05;;;;;;;33.07;21.90;;;5.70;99.90;;;;;;4869240;29;20999;-81
2022/03/23 05:24:32;;;;;;;35.87;21.10;;;5.70;99.90;;;;;;4870372;29;20929;-80
2022/03/23 05:26:59;;;;;;;26.83;20.27;;;5.50;99.90;;;;;;4869978;29;20822;-80
2022/03/23 05:29:28;;;;;;;37.17;25.25;;;5.60;99.90;;;;;;4871354;29;20483;-82
2022/03/23 05:31:55;;;;;;;31.27;22.77;;;5.60;99.90;;;;;;4875784;29;20592;-81
2022/03/23 05:34:25;;;;;;;32.43;21.67;;;5.70;99.90;;;;;;4874230;29;20481;-80
2022/03/23 05:36:54;;;;;;;32.87;20.00;;;5.80;99.90;;;;;;4876709;29;20574;-85
2022/03/23 05:39:32;;;;;;;35.10;22.47;;;5.80;99.90;;;;;;4877392;29;20459;-82
2022/03/23 05:42:05;;;;;;;35.60;21.93;;;5.70;99.90;;;;;;4877507;29;20452;-80
2022/03/23 05:44:37;;;;;;;35.50;22.83;;;5.60;99.90;;;;;;4877593;29;20467;-80
2022/03/23 05:47:05;;;;;;;31.20;21.60;;;5.60;99.90;;;;;;4877614;29;20472;-79
2022/03/23 05:49:33;;;;;;;38.40;22.57;;;5.70;99.90;;;;;;4876606;29;20260;-79
2022/03/23 05:52:06;;;;;;;33.90;21.53;;;5.70;99.90;;;;;;4876812;29;20461;-79
2022/03/23 05:54:36;;;;;;;35.73;21.43;;;5.80;99.90;;;;;;4875089;29;20443;-82
2022/03/23 05:57:04;;;;;;;40.83;21.87;;;5.80;99.90;;;;;;4874937;29;20488;-79
2022/03/23 05:59:40;;;;;;;31.90;22.10;;;5.80;99.90;;;;;;4876257;29;20202;-82
2022/03/23 06:02:18;;;;;;;34.70;21.90;;;5.70;99.90;;;;;;4866499;29;20469;-85
2022/03/23 06:04:46;;;;;;;38.23;22.00;;;5.70;99.90;;;;;;4862312;29;20465;-80
2022/03/23 06:07:15;;;;;;;40.17;22.00;;;5.70;99.90;;;;;;4857790;29;20457;-84
2022/03/23 06:09:44;;;;;;;36.70;21.50;;;5.70;99.90;;;;;;4856649;29;20480;-79
2022/03/23 06:12:12;;;;;;;31.13;22.63;;;5.80;99.90;;;;;;4857680;29;20442;-79
2022/03/23 06:14:44;;;;;;;32.10;21.43;;;5.90;99.90;;;;;;4858265;29;20461;-80
2022/03/23 06:17:11;;;;;;;35.43;21.37;;;6.00;99.90;;;;;;4859679;29;20477;-81
2022/03/23 06:19:38;;;;;;;38.63;21.70;;;6.00;99.90;;;;;;4853005;29;20459;-79
2022/03/23 06:22:06;;;;;;;35.00;21.70;;;6.10;99.90;;;;;;4856612;29;20214;-85
2022/03/23 06:24:38;;;;;;;32.87;21.67;;;6.10;99.90;;;;;;4851809;29;20220;-82
2022/03/23 06:27:05;;;;;;;36.27;22.10;;;6.20;99.90;;;;;;4855925;29;20214;-79
2022/03/23 06:29:34;;;;;;;40.30;21.57;;;6.20;99.90;;;;;;4854590;29;20570;-80
2022/03/23 06:32:04;;;;;;;36.93;21.60;;;6.30;99.90;;;;;;4857767;29;20252;-84
2022/03/23 06:34:31;;;;;;;29.43;20.57;;;6.40;99.90;;;;;;4857162;29;20216;-79
2022/03/23 06:37:01;;;;;;;39.10;21.33;;;6.40;99.90;;;;;;4850568;29;20233;-79
2022/03/23 06:39:31;;;;;;;28.77;21.03;;;6.40;99.90;;;;;;4851639;29;20221;-80
2022/03/23 06:42:00;;;;;;;30.77;22.53;;;6.50;99.90;;;;;;4852862;29;20206;-80
2022/03/23 06:44:31;;;;;;;38.83;21.90;;;6.60;99.90;;;;;;4857249;29;20198;-82
2022/03/23 06:47:00;;;;;;;32.20;21.43;;;6.70;99.90;;;;;;4859391;29;20257;-80
2022/03/23 06:49:28;;;;;;;33.77;21.33;;;6.70;99.90;;;;;;4856181;29;20210;-80
2022/03/23 06:52:04;;;;;;;34.53;21.53;;;6.60;99.90;;;;;;4856087;29;20213;-80
2022/03/23 06:54:31;;;;;;;30.03;20.93;;;6.60;99.90;;;;;;4857205;29;20261;-82
2022/03/23 06:57:01;;;;;;;29.90;21.27;;;6.70;99.90;;;;;;4856033;29;20238;-79
2022/03/23 06:59:28;;;;;;;35.40;21.93;;;6.80;99.90;;;;;;4857763;29;20218;-80
2022/03/23 07:01:56;;;;;;;31.80;24.65;;;6.90;99.90;;;;;;4855137;29;20870;-81
2022/03/23 07:04:28;;;;;;;34.67;22.50;;;7.00;99.90;;;;;;4853904;29;20210;-82
2022/03/23 07:06:55;;;;;;;29.57;20.30;;;7.10;99.90;;;;;;4853348;29;20214;-80
2022/03/23 07:09:33;;;;;;;30.77;22.20;;;7.10;99.90;;;;;;4853893;29;20214;-80
2022/03/23 07:12:09;;;;;;;34.53;22.43;;;7.20;99.90;;;;;;4853897;29;20666;-80
2022/03/23 07:14:39;;;;;;;34.27;22.40;;;7.30;99.90;;;;;;4853603;29;20254;-81
2022/03/23 07:17:19;;;;;;;39.33;21.87;;;7.40;99.90;;;;;;4852398;29;20274;-80
2022/03/23 07:19:46;;;;;;;38.83;21.57;;;7.40;99.90;;;;;;4849417;29;20213;-80
2022/03/23 07:22:18;;;;;;;34.70;21.73;;;7.70;99.90;;;;;;4850304;29;20214;-82
2022/03/23 07:24:46;;;;;;;34.50;21.33;;;7.70;99.90;;;;;;4848469;29;20202;-81
2022/03/23 07:27:28;;;;;;;34.97;21.60;;;7.80;99.90;;;;;;4860731;29;20186;-80
2022/03/23 07:30:00;;;;;;;32.20;21.37;;;7.90;99.90;;;;;;4862070;29;20194;-82
2022/03/23 07:32:39;;;;;;;35.47;22.07;;;8.10;99.90;;;;;;4864167;29;20221;-84
2022/03/23 07:35:13;;;;;;;33.20;21.40;;;8.20;99.90;;;;;;4864187;29;20221;-82
2022/03/23 07:37:46;;;;;;;33.67;21.97;;;8.40;99.90;;;;;;4861491;29;20232;-82
2022/03/23 07:40:24;;;;;;;39.23;22.03;;;8.60;99.90;;;;;;4860667;29;20202;-80
2022/03/23 07:42:59;;;;;;;35.20;21.43;;;8.60;99.90;;;;;;4857412;29;20235;-79
2022/03/23 07:45:35;;;;;;;109.30;29.30;;;8.60;99.90;;;;;;4858224;29;20216;-80
2022/03/23 07:48:07;;;;;;;39.97;24.83;;;8.70;99.90;;;;;;4857084;29;20454;-82
2022/03/23 07:50:38;;;;;;;33.90;22.90;;;9.00;99.90;;;;;;4857358;29;20195;-81
2022/03/23 07:53:26;;;;;;;37.10;22.83;;;9.20;99.90;;;;;;4856558;29;20286;-80
2022/03/23 07:55:54;;;;;;;32.67;21.63;;;9.40;99.90;;;;;;4853721;29;20648;-80
2022/03/23 07:58:32;;;;;;;35.10;22.53;;;9.50;99.90;;;;;;4854353;29;20253;-79
2022/03/23 08:01:03;;;;;;;696.80;105.33;;;9.60;99.90;;;;;;4855374;29;20228;-81
2022/03/23 08:03:37;;;;;;;74.60;28.13;;;9.70;99.90;;;;;;4855494;29;20365;-80
2022/03/23 08:06:14;;;;;;;46.97;23.90;;;10.00;99.90;;;;;;4860651;29;20281;-81
2022/03/23 08:08:49;;;;;;;35.87;21.93;;;10.00;99.90;;;;;;4864428;29;20221;-85
2022/03/23 08:11:35;;;;;;;44.58;26.17;;;10.10;99.90;;;;;;4862269;29;20443;-81
2022/03/23 08:14:50;;;;;;;38.90;21.80;;;10.40;99.90;;;;;;4861453;29;20237;-83
2022/03/23 08:18:02;;;;;;;45.07;25.17;;;10.70;99.90;;;;;;4843307;29;20230;-86
2022/03/23 08:26:47;;;;;;;38.60;23.47;;;11.10;99.90;;;;;;4846234;29;20222;-85
2022/03/23 08:29:37;;;;;;;37.43;22.87;;;11.30;99.90;;;;;;4846790;29;20239;-86
2022/03/23 08:34:59;;;;;;;35.80;25.63;;;11.50;99.90;;;;;;4844297;29;20499;-80
2022/03/23 08:37:58;;;;;;;33.13;23.93;;;11.70;99.90;;;;;;4843739;29;20253;-80
2022/03/23 08:40:29;;;;;;;34.90;22.87;;;12.00;99.90;;;;;;4844742;29;20206;-79
2022/03/23 08:42:58;;;;;;;39.53;22.77;;;12.20;99.90;;;;;;4843505;29;20309;-80
2022/03/23 08:45:29;;;;;;;44.90;23.87;;;12.30;99.90;;;;;;4842836;29;20212;-80
2022/03/23 08:48:20;;;;;;;40.03;21.70;;;12.40;99.90;;;;;;4844297;29;20228;-80
2022/03/23 08:51:26;;;;;;;45.30;23.40;;;12.50;99.90;;;;;;4845191;29;20196;-80
2022/03/23 08:53:53;;;;;;;39.77;23.73;;;12.60;99.90;;;;;;4844613;29;20248;-80
2022/03/23 08:56:42;;;;;;;37.27;22.50;;;12.60;99.90;;;;;;4846282;29;20281;-80
2022/03/23 08:59:18;;;;;;;39.27;24.23;;;12.70;99.90;;;;;;4844280;29;20228;-80
2022/03/23 09:01:54;;;;;;;37.00;23.33;;;12.80;99.90;;;;;;4846130;29;20204;-80
2022/03/23 09:04:57;;;;;;;39.57;23.47;;;12.80;99.90;;;;;;4841325;29;20259;-81
2022/03/23 09:10:45;;;;;;;36.00;25.10;;;13.10;99.90;;;;;;4847957;29;20223;-80
2022/03/23 09:16:38;;;;;;;42.13;24.97;;;13.50;99.90;;;;;;4844202;29;20228;-81
2022/03/23 09:19:37;;;;;;;40.97;26.63;;;13.60;99.90;;;;;;4850538;29;20283;-82
2022/03/23 09:25:37;;;;;;;39.80;26.50;;;13.80;99.90;;;;;;4851540;29;20216;-81
2022/03/23 09:28:51;;;;;;;33.70;24.63;;;13.90;99.90;;;;;;4852075;29;20201;-81
2022/03/23 09:31:41;;;;;;;35.47;24.27;;;14.20;99.90;;;;;;4859068;29;20239;-81
2022/03/23 09:34:26;;;;;;;39.80;25.57;;;14.40;99.90;;;;;;4870278;29;20289;-81
2022/03/23 09:39:49;;;;;;;39.43;26.40;;;14.70;99.90;;;;;;4871236;29;20208;-80
2022/03/23 09:42:36;;;;;;;39.23;25.80;;;14.90;99.90;;;;;;4871971;29;20208;-81
2022/03/23 09:45:31;;;;;;;41.65;28.70;;;14.90;99.90;;;;;;4870326;29;20449;-81
2022/03/23 09:48:11;;;;;;;43.70;27.17;;;15.10;99.90;;;;;;4868560;29;20237;-80
2022/03/23 09:50:45;;;;;;;44.57;27.60;;;15.30;99.90;;;;;;4864130;29;20230;-81
2022/03/23 09:53:25;;;;;;;42.60;27.67;;;15.50;99.90;;;;;;4859015;29;20230;-81
2022/03/23 09:55:53;;;;;;;39.73;26.17;;;15.50;99.90;;;;;;4858493;29;20281;-82
2022/03/23 09:58:27;;;;;;;40.50;26.67;;;15.60;99.90;;;;;;4857685;29;20260;-81
2022/03/23 10:00:55;;;;;;;38.97;26.30;;;15.70;99.90;;;;;;4857621;29;20290;-82
2022/03/23 10:04:06;;;;;;;42.17;27.07;;;15.90;99.90;;;;;;4854508;29;20221;-82
2022/03/23 10:07:13;;;;;;;45.70;28.33;;;16.00;99.90;;;;;;4869948;29;20192;-79
2022/03/23 10:10:53;;;;;;;41.40;30.17;;;16.10;99.90;;;;;;4869169;29;20922;-81
2022/03/23 10:14:10;;;;;;;39.60;27.83;;;16.30;99.90;;;;;;4862578;29;20215;-81
2022/03/23 10:17:09;;;;;;;40.13;27.37;;;16.30;99.90;;;;;;4855209;29;20245;-81
2022/03/23 10:19:42;;;;;;;40.30;27.53;;;16.30;99.90;;;;;;4856625;29;20219;-80
2022/03/23 10:22:11;;;;;;;37.50;26.50;;;16.40;99.90;;;;;;4857837;29;20244;-80
2022/03/23 10:24:39;;;;;;;37.33;25.47;;;16.60;99.90;;;;;;4862403;29;20205;-82
2022/03/23 10:27:20;;;;;;;40.73;27.50;;;16.70;99.90;;;;;;4870585;29;20181;-81
2022/03/23 10:29:55;;;;;;;43.30;28.27;;;16.80;99.90;;;;;;4868033;29;20317;-80
2022/03/23 10:32:22;;;;;;;38.45;29.52;;;16.90;99.90;;;;;;4850231;29;20442;-82
2022/03/23 10:34:51;;;;;;;41.77;26.97;;;16.90;99.90;;;;;;4851103;29;20213;-82
2022/03/23 10:37:25;;;;;;;41.83;27.30;;;16.90;99.90;;;;;;4847383;29;20241;-83
2022/03/23 10:39:52;;;;;;;44.40;26.47;;;17.10;99.90;;;;;;4848072;29;20576;-84
2022/03/23 10:42:23;;;;;;;35.83;25.90;;;17.10;99.40;;;;;;4848662;29;20220;-84
2022/03/23 10:44:50;;;;;;;42.47;26.63;;;17.10;99.30;;;;;;4845367;29;20202;-84
2022/03/23 10:47:31;;;;;;;41.23;26.47;;;17.10;98.50;;;;;;4848526;29;20210;-86
2022/03/23 10:50:05;;;;;;;34.30;25.63;;;17.10;98.20;;;;;;4844711;29;20229;-88
2022/03/23 10:52:32;;;;;;;38.30;26.40;;;17.20;99.10;;;;;;4844919;29;20233;-85
2022/03/23 10:55:02;;;;;;;37.07;25.93;;;17.40;99.30;;;;;;4844906;29;20203;-85
2022/03/23 10:58:12;;;;;;;37.03;24.67;;;17.50;98.80;;;;;;4845058;29;20248;-85
2022/03/23 11:00:46;;;;;;;34.07;23.70;;;17.50;98.10;;;;;;4856571;29;20220;-84
2022/03/23 11:03:13;;;;;;;39.37;25.80;;;17.40;98.20;;;;;;4848007;29;20209;-85
2022/03/23 11:05:42;;;;;;;36.97;25.60;;;17.50;98.20;;;;;;4844531;29;20207;-82
2022/03/23 11:08:11;;;;;;;34.73;24.53;;;17.90;97.60;;;;;;4842401;29;20300;-83
2022/03/23 11:16:22;;;;;;;32.00;23.37;;;17.70;95.60;;;;;;4848564;29;20210;-81
2022/03/23 11:18:49;;;;;;;32.90;22.73;;;17.80;95.70;;;;;;4843413;29;20218;-86
2022/03/23 11:21:17;;;;;;;33.22;25.85;;;17.90;95.00;;;;;;4846887;29;20447;-84
2022/03/23 11:23:50;;;;;;;35.37;25.37;;;17.90;94.10;;;;;;4851126;29;20210;-82
2022/03/23 11:26:17;;;;;;;32.37;23.90;;;17.80;95.00;;;;;;4846992;29;20195;-83
2022/03/23 11:28:46;;;;;;;35.63;23.53;;;17.90;95.00;;;;;;4843797;29;20207;-86
2022/03/23 11:31:15;;;;;;;32.93;23.67;;;18.00;95.00;;;;;;4843098;29;20210;-87
2022/03/23 11:33:46;;;;;;;35.53;21.53;;;18.00;94.80;;;;;;4844195;29;20221;-81
2022/03/23 11:36:13;;;;;;;32.97;22.57;;;18.20;93.30;;;;;;4843673;29;20203;-83
2022/03/23 11:38:41;;;;;;;32.47;22.00;;;18.30;92.50;;;;;;4844002;29;20235;-82
2022/03/23 11:41:09;;;;;;;32.00;22.77;;;18.30;92.90;;;;;;4843450;29;20216;-84
2022/03/23 11:43:37;;;;;;;33.70;22.33;;;18.30;92.90;;;;;;4843831;29;20258;-80
2022/03/23 11:46:06;;;;;;;35.97;22.77;;;18.40;92.50;;;;;;4846896;29;20236;-82
2022/03/23 11:48:54;;;;;;;32.00;21.47;;;18.30;92.70;;;;;;4849739;29;20230;-83
2022/03/23 11:51:38;;;;;;;34.03;21.00;;;18.30;92.30;;;;;;4849725;29;20214;-83
2022/03/23 11:54:11;;;;;;;33.43;21.93;;;18.30;91.60;;;;;;4849941;29;20207;-87
2022/03/23 11:56:45;;;;;;;34.93;23.20;;;18.20;92.00;;;;;;4844010;29;20222;-81
2022/03/23 11:59:20;;;;;;;27.87;19.33;;;18.40;92.10;;;;;;4843525;29;20216;-87
2022/03/23 12:01:47;;;;;;;28.83;17.77;;;18.40;91.70;;;;;;4843228;29;20664;-85
2022/03/23 12:04:20;;;;;;;22.47;15.57;;;18.60;91.40;;;;;;4843670;29;20208;-83
2022/03/23 12:06:47;;;;;;;17.38;12.55;;;18.60;90.40;;;;;;4843391;29;20542;-84
2022/03/23 12:09:34;;;;;;;16.03;12.17;;;18.70;85.00;;;;;;4843804;29;20311;-83
2022/03/23 12:12:02;;;;;;;16.97;12.73;;;18.60;85.00;;;;;;4844714;29;20219;-81
2022/03/23 12:14:34;;;;;;;24.40;15.03;;;18.40;85.70;;;;;;4859209;29;20207;-80
2022/03/23 12:17:33;;;;;;;22.00;15.80;;;18.40;87.60;;;;;;4857912;29;20242;-88
2022/03/23 12:20:27;;;;;;;27.00;15.00;;;18.50;88.90;;;;;;4858337;29;20658;-81
2022/03/23 12:23:23;;;;;;;26.90;16.00;;;18.60;87.40;;;;;;4845424;29;20211;-84
2022/03/23 12:26:04;;;;;;;16.67;11.13;;;18.60;87.50;;;;;;4843545;29;20218;-87
2022/03/23 12:29:00;;;;;;;17.07;11.53;;;18.70;83.40;;;;;;4852698;29;20204;-81
2022/03/23 12:31:37;;;;;;;22.83;12.43;;;18.60;80.30;;;;;;4846477;29;20217;-90
2022/03/23 12:34:14;;;;;;;22.80;13.13;;;18.60;83.30;;;;;;4853278;29;20208;-86
2022/03/23 12:37:04;;;;;;;25.40;14.47;;;18.60;83.60;;;;;;4845564;29;20212;-89
2022/03/23 12:39:53;;;;;;;15.37;10.83;;;18.80;85.10;;;;;;4851362;29;20275;-80
2022/03/23 12:42:32;;;;;;;12.27;9.47;;;18.80;81.90;;;;;;4857293;29;20215;-82
2022/03/23 12:45:32;;;;;;;14.57;11.17;;;18.80;78.90;;;;;;4860138;29;20207;-83
2022/03/23 12:59:25;;;;;;;15.83;10.67;;;18.90;79.70;;;;;;4844623;29;20239;-82
2022/03/23 13:01:56;;;;;;;16.00;10.57;;;19.00;79.10;;;;;;4843347;29;20662;-84
2022/03/23 13:04:51;;;;;;;14.13;10.20;;;19.00;79.70;;;;;;4843203;29;20657;-86
2022/03/23 13:07:41;;;;;;;16.73;11.60;;;19.00;75.30;;;;;;4842601;29;20220;-82
2022/03/23 13:10:11;;;;;;;15.10;10.60;;;18.90;79.20;;;;;;4842888;29;20217;-88
2022/03/23 13:12:39;;;;;;;24.33;11.13;;;19.20;78.40;;;;;;4842757;29;20225;-86
2022/03/23 13:15:16;;;;;;;16.10;11.00;;;19.30;77.70;;;;;;4842740;29;20205;-95
2022/03/23 13:17:44;;;;;;;15.67;11.53;;;19.20;76.70;;;;;;4843415;29;20245;-90
2022/03/23 13:20:15;;;;;;;14.87;11.43;;;19.20;77.80;;;;;;4843328;29;20668;-91
2022/03/23 13:22:48;;;;;;;11.50;10.33;;;19.00;77.60;;;;;;4843534;29;20214;-90
2022/03/23 13:25:17;;;;;;;12.77;10.60;;;19.00;78.10;;;;;;4843711;29;20217;-88
2022/03/23 13:27:48;;;;;;;12.87;10.63;;;19.00;78.40;;;;;;4843069;29;20642;-88
2022/03/23 13:30:17;;;;;;;14.63;10.37;;;19.10;77.90;;;;;;4843188;29;20255;-83
2022/03/23 13:32:47;;;;;;;16.00;11.10;;;19.10;75.50;;;;;;4843906;29;20219;-83
2022/03/23 13:35:15;;;;;;;17.33;11.43;;;19.10;76.50;;;;;;4843041;29;20269;-86
2022/03/23 13:37:59;;;;;;;17.40;11.30;;;19.30;77.30;;;;;;4842715;29;20604;-90
2022/03/23 13:40:30;;;;;;;18.43;11.80;;;19.40;78.20;;;;;;4842581;29;20218;-90
2022/03/23 13:45:51;;;;;;;17.43;11.00;;;19.50;77.80;;;;;;4842905;29;20211;-86
2022/03/23 13:48:18;;;;;;;20.53;11.23;;;19.40;78.20;;;;;;4842168;29;20570;-91
2022/03/23 13:50:47;;;;;;;18.30;10.40;;;19.40;76.20;;;;;;4843291;29;20209;-85
2022/03/23 13:53:14;;;;;;;18.37;10.47;;;19.50;76.20;;;;;;4842747;29;20294;-87
2022/03/23 13:55:43;;;;;;;15.77;9.73;;;19.50;75.10;;;;;;4842476;29;20239;-90
2022/03/23 13:58:11;;;;;;;14.20;9.93;;;19.40;75.30;;;;;;4841991;29;20230;-88